sensor_id;sensor_type;location;lat;lon;timestamp;temperature;humidity
19342;DHT22;9807;48.258;12.690;2022-12-18T00:01:02;4.10;99.90
19342;DHT22;9807;48.258;12.690;2022-12-18T00:03:33;4.10;99.90
19342;DHT22;9807;48.258;12.690;2022-12-18T00:05:58;4.10;99.90
19342;DHT22;9807;48.258;12.690;2022-12-18T00:08:24;4.10;99.90
19342;DHT22;9807;48.258;12.690;2022-12-18T00:10:50;3.90;99.90
19342;DHT22;9807;48.258;12.690;2022-12-18T00:13:16;3.90;99.90
19342;DHT22;9807;48.258;12.690;2022-12-18T00:15:41;3.90;99.90
19342;DHT22;9807;48.258;12.690;2022-12-18T00:18:07;4.00;99.90
19342;DHT22;9807;48.258;12.690;2022-12-18T00:20:37;4.00;99.90
19342;DHT22;9807;48.258;12.690;2022-12-18T00:23:04;4.10;99.90
19342;DHT22;9807;48.258;12.690;2022-12-18T00:25:33;4.10;99.90
19342;DHT22;9807;48.258;12.690;2022-12-18T00:28:00;4.10;99.90
19342;DHT22;9807;48.258;12.690;2022-12-18T00:30:25;4.10;99.90
19342;DHT22;9807;48.258;12.690;2022-12-18T00:32:51;4.20;99.90
19342;DHT22;9807;48.258;12.690;2022-12-18T00:35:17;3.70;99.90
19342;DHT22;9807;48.258;12.690;2022-12-18T00:37:42;3.50;99.90
19342;DHT22;9807;48.258;12.690;2022-12-18T00:40:09;3.70;99.90
19342;DHT22;9807;48.258;12.690;2022-12-18T00:42:37;3.80;99.90
19342;DHT22;9807;48.258;12.690;2022-12-18T00:45:29;4.00;99.90
19342;DHT22;9807;48.258;12.690;2022-12-18T00:47:55;4.00;99.90
19342;DHT22;9807;48.258;12.690;2022-12-18T00:50:25;3.80;99.90
19342;DHT22;9807;48.258;12.690;2022-12-18T00:52:51;3.90;99.90
19342;DHT22;9807;48.258;12.690;2022-12-18T00:55:18;4.00;99.90
19342;DHT22;9807;48.258;12.690;2022-12-18T00:57:43;4.10;99.90
19342;DHT22;9807;48.258;12.690;2022-12-18T01:00:13;4.10;99.90
19342;DHT22;9807;48.258;12.690;2022-12-18T01:02:39;4.10;99.90
19342;DHT22;9807;48.258;12.690;2022-12-18T01:05:06;4.10;99.90
19342;DHT22;9807;48.258;12.690;2022-12-18T01:07:32;4.10;99.90
19342;DHT22;9807;48.258;12.690;2022-12-18T01:09:57;4.20;99.90
19342;DHT22;9807;48.258;12.690;2022-12-18T01:12:23;4.10;99.90
19342;DHT22;9807;48.258;12.690;2022-12-18T01:14:49;4.10;99.90
19342;DHT22;9807;48.258;12.690;2022-12-18T01:17:17;4.00;99.90
19342;DHT22;9807;48.258;12.690;2022-12-18T01:19:43;4.00;99.90
19342;DHT22;9807;48.258;12.690;2022-12-18T01:22:09;4.10;99.90
19342;DHT22;9807;48.258;12.690;2022-12-18T01:24:34;4.10;99.90
19342;DHT22;9807;48.258;12.690;2022-12-18T01:27:00;4.10;99.90
19342;DHT22;9807;48.258;12.690;2022-12-18T01:29:26;4.10;99.90
19342;DHT22;9807;48.258;12.690;2022-12-18T01:31:55;4.10;99.90
19342;DHT22;9807;48.258;12.690;2022-12-18T01:34:20;4.10;99.90
19342;DHT22;9807;48.258;12.690;2022-12-18T01:36:46;4.00;99.90
19342;DHT22;9807;48.258;12.690;2022-12-18T01:39:14;4.00;99.90
19342;DHT22;9807;48.258;12.690;2022-12-18T01:41:40;4.00;99.90
19342;DHT22;9807;48.258;12.690;2022-12-18T01:44:54;4.10;99.90
19342;DHT22;9807;48.258;12.690;2022-12-18T01:49:50;4.00;99.90
19342;DHT22;9807;48.258;12.690;2022-12-18T01:52:17;4.00;99.90
19342;DHT22;9807;48.258;12.690;2022-12-18T01:54:44;4.10;99.90
19342;DHT22;9807;48.258;12.690;2022-12-18T01:57:10;4.00;99.90
19342;DHT22;9807;48.258;12.690;2022-12-18T01:59:36;4.10;99.90
19342;DHT22;9807;48.258;12.690;2022-12-18T02:17:13;4.00;99.90
19342;DHT22;9807;48.258;12.690;2022-12-18T02:23:01;4.10;99.90
19342;DHT22;9807;48.258;12.690;2022-12-18T02:28:20;4.10;99.90
19342;DHT22;9807;48.258;12.690;2022-12-18T02:30:49;4.10;99.90
19342;DHT22;9807;48.258;12.690;2022-12-18T02:33:19;4.20;99.90
19342;DHT22;9807;48.258;12.690;2022-12-18T02:35:47;4.10;99.90
19342;DHT22;9807;48.258;12.690;2022-12-18T02:38:14;4.00;99.90
19342;DHT22;9807;48.258;12.690;2022-12-18T02:40:42;3.90;99.90
19342;DHT22;9807;48.258;12.690;2022-12-18T02:43:10;4.00;99.90
19342;DHT22;9807;48.258;12.690;2022-12-18T02:45:56;4.00;99.90
19342;DHT22;9807;48.258;12.690;2022-12-18T02:48:29;4.00;99.90
19342;DHT22;9807;48.258;12.690;2022-12-18T02:54:09;4.00;99.90
19342;DHT22;9807;48.258;12.690;2022-12-18T02:56:39;4.10;99.90
19342;DHT22;9807;48.258;12.690;2022-12-18T02:59:13;4.20;99.90
19342;DHT22;9807;48.258;12.690;2022-12-18T03:01:58;4.10;99.90
19342;DHT22;9807;48.258;12.690;2022-12-18T03:04:30;4.10;99.90
19342;DHT22;9807;48.258;12.690;2022-12-18T03:07:03;4.00;99.90
19342;DHT22;9807;48.258;12.690;2022-12-18T03:09:37;4.00;99.90
19342;DHT22;9807;48.258;12.690;2022-12-18T03:17:28;4.00;99.90
19342;DHT22;9807;48.258;12.690;2022-12-18T03:19:58;4.00;99.90
19342;DHT22;9807;48.258;12.690;2022-12-18T03:22:27;4.00;99.90
19342;DHT22;9807;48.258;12.690;2022-12-18T03:24:59;4.00;99.90
19342;DHT22;9807;48.258;12.690;2022-12-18T03:27:27;4.10;99.90
19342;DHT22;9807;48.258;12.690;2022-12-18T03:30:02;4.20;99.90
19342;DHT22;9807;48.258;12.690;2022-12-18T03:32:43;4.10;99.90
19342;DHT22;9807;48.258;12.690;2022-12-18T03:35:13;4.10;99.90
19342;DHT22;9807;48.258;12.690;2022-12-18T03:37:40;4.00;99.90
19342;DHT22;9807;48.258;12.690;2022-12-18T03:40:06;4.10;99.90
19342;DHT22;9807;48.258;12.690;2022-12-18T03:42:50;4.10;99.90
19342;DHT22;9807;48.258;12.690;2022-12-18T03:45:25;4.00;99.90
19342;DHT22;9807;48.258;12.690;2022-12-18T03:48:29;3.90;99.90
19342;DHT22;9807;48.258;12.690;2022-12-18T03:51:05;3.90;99.90
19342;DHT22;9807;48.258;12.690;2022-12-18T03:56:02;3.90;99.90
19342;DHT22;9807;48.258;12.690;2022-12-18T03:58:29;3.90;99.90
19342;DHT22;9807;48.258;12.690;2022-12-18T04:01:02;3.80;99.90
19342;DHT22;9807;48.258;12.690;2022-12-18T04:03:29;3.90;99.90
19342;DHT22;9807;48.258;12.690;2022-12-18T04:06:00;3.90;99.90
19342;DHT22;9807;48.258;12.690;2022-12-18T04:08:26;3.80;99.90
19342;DHT22;9807;48.258;12.690;2022-12-18T04:10:53;3.60;99.90
19342;DHT22;9807;48.258;12.690;2022-12-18T04:13:27;3.80;99.90
19342;DHT22;9807;48.258;12.690;2022-12-18T04:15:59;3.80;99.90
19342;DHT22;9807;48.258;12.690;2022-12-18T04:18:25;3.80;99.90
19342;DHT22;9807;48.258;12.690;2022-12-18T04:20:54;3.80;99.90
19342;DHT22;9807;48.258;12.690;2022-12-18T04:23:20;3.70;99.90
19342;DHT22;9807;48.258;12.690;2022-12-18T04:25:47;3.80;99.90
19342;DHT22;9807;48.258;12.690;2022-12-18T04:28:13;3.90;99.90
19342;DHT22;9807;48.258;12.690;2022-12-18T04:30:38;3.90;99.90
19342;DHT22;9807;48.258;12.690;2022-12-18T04:33:11;3.90;99.90
19342;DHT22;9807;48.258;12.690;2022-12-18T04:35:38;3.80;99.90
19342;DHT22;9807;48.258;12.690;2022-12-18T04:38:05;3.90;99.90
19342;DHT22;9807;48.258;12.690;2022-12-18T04:40:31;3.90;99.90
19342;DHT22;9807;48.258;12.690;2022-12-18T04:42:57;3.90;99.90
19342;DHT22;9807;48.258;12.690;2022-12-18T04:45:23;3.90;99.90
19342;DHT22;9807;48.258;12.690;2022-12-18T04:47:48;3.90;99.90
19342;DHT22;9807;48.258;12.690;2022-12-18T04:50:14;3.80;99.90
19342;DHT22;9807;48.258;12.690;2022-12-18T04:52:40;3.90;99.90
19342;DHT22;9807;48.258;12.690;2022-12-18T04:55:06;3.90;99.90
19342;DHT22;9807;48.258;12.690;2022-12-18T04:57:32;3.90;99.90
19342;DHT22;9807;48.258;12.690;2022-12-18T04:59:57;3.60;99.90
19342;DHT22;9807;48.258;12.690;2022-12-18T05:02:23;3.80;99.90
19342;DHT22;9807;48.258;12.690;2022-12-18T05:04:49;3.80;99.90
19342;DHT22;9807;48.258;12.690;2022-12-18T05:07:14;3.80;99.90
19342;DHT22;9807;48.258;12.690;2022-12-18T05:09:40;3.50;99.90
19342;DHT22;9807;48.258;12.690;2022-12-18T05:12:06;3.60;99.90
19342;DHT22;9807;48.258;12.690;2022-12-18T05:14:31;3.60;99.90
19342;DHT22;9807;48.258;12.690;2022-12-18T05:16:57;3.50;99.90
19342;DHT22;9807;48.258;12.690;2022-12-18T05:19:23;3.50;99.90
19342;DHT22;9807;48.258;12.690;2022-12-18T05:21:48;3.50;99.90
19342;DHT22;9807;48.258;12.690;2022-12-18T05:24:14;3.50;99.90
19342;DHT22;9807;48.258;12.690;2022-12-18T05:26:40;3.60;99.90
19342;DHT22;9807;48.258;12.690;2022-12-18T05:29:05;3.50;99.90
19342;DHT22;9807;48.258;12.690;2022-12-18T05:31:31;3.70;99.90
19342;DHT22;9807;48.258;12.690;2022-12-18T05:33:57;3.70;99.90
19342;DHT22;9807;48.258;12.690;2022-12-18T05:36:23;3.70;99.90
19342;DHT22;9807;48.258;12.690;2022-12-18T05:38:49;3.80;99.90
19342;DHT22;9807;48.258;12.690;2022-12-18T05:41:14;3.70;99.90
19342;DHT22;9807;48.258;12.690;2022-12-18T05:43:40;3.80;99.90
19342;DHT22;9807;48.258;12.690;2022-12-18T05:46:14;3.80;99.90
19342;DHT22;9807;48.258;12.690;2022-12-18T05:48:41;3.80;99.90
19342;DHT22;9807;48.258;12.690;2022-12-18T05:51:09;3.90;99.90
19342;DHT22;9807;48.258;12.690;2022-12-18T05:53:36;3.70;99.90
19342;DHT22;9807;48.258;12.690;2022-12-18T05:56:07;3.80;99.90
19342;DHT22;9807;48.258;12.690;2022-12-18T05:58:33;3.90;99.90
19342;DHT22;9807;48.258;12.690;2022-12-18T06:01:17;3.90;99.90
19342;DHT22;9807;48.258;12.690;2022-12-18T06:03:42;3.90;99.90
19342;DHT22;9807;48.258;12.690;2022-12-18T06:06:23;4.00;99.90
19342;DHT22;9807;48.258;12.690;2022-12-18T06:08:50;3.40;99.90
19342;DHT22;9807;48.258;12.690;2022-12-18T06:11:21;3.40;99.90
19342;DHT22;9807;48.258;12.690;2022-12-18T06:13:50;3.50;99.90
19342;DHT22;9807;48.258;12.690;2022-12-18T06:16:16;3.70;99.90
19342;DHT22;9807;48.258;12.690;2022-12-18T06:18:42;3.60;99.90
19342;DHT22;9807;48.258;12.690;2022-12-18T06:21:08;3.70;99.90
19342;DHT22;9807;48.258;12.690;2022-12-18T06:23:36;3.70;99.90
19342;DHT22;9807;48.258;12.690;2022-12-18T06:26:08;3.80;99.90
19342;DHT22;9807;48.258;12.690;2022-12-18T06:28:35;3.90;99.90
19342;DHT22;9807;48.258;12.690;2022-12-18T06:31:03;3.90;99.90
19342;DHT22;9807;48.258;12.690;2022-12-18T06:33:29;3.80;99.90
19342;DHT22;9807;48.258;12.690;2022-12-18T06:35:59;3.90;99.90
19342;DHT22;9807;48.258;12.690;2022-12-18T06:38:26;3.90;99.90
19342;DHT22;9807;48.258;12.690;2022-12-18T06:40:51;3.80;99.90
19342;DHT22;9807;48.258;12.690;2022-12-18T06:43:17;3.90;99.90
19342;DHT22;9807;48.258;12.690;2022-12-18T06:45:43;3.80;99.90
19342;DHT22;9807;48.258;12.690;2022-12-18T06:48:08;3.80;99.90
19342;DHT22;9807;48.258;12.690;2022-12-18T06:50:34;3.90;99.90
19342;DHT22;9807;48.258;12.690;2022-12-18T06:53:00;3.70;99.90
19342;DHT22;9807;48.258;12.690;2022-12-18T06:55:25;3.80;99.90
19342;DHT22;9807;48.258;12.690;2022-12-18T06:57:51;3.80;99.90
19342;DHT22;9807;48.258;12.690;2022-12-18T07:00:17;3.60;99.90
19342;DHT22;9807;48.258;12.690;2022-12-18T07:02:43;3.70;99.90
19342;DHT22;9807;48.258;12.690;2022-12-18T07:05:08;3.60;99.90
19342;DHT22;9807;48.258;12.690;2022-12-18T07:07:37;3.50;99.90
19342;DHT22;9807;48.258;12.690;2022-12-18T07:10:03;3.50;99.90
19342;DHT22;9807;48.258;12.690;2022-12-18T07:12:29;3.40;99.90
19342;DHT22;9807;48.258;12.690;2022-12-18T07:14:55;3.60;99.90
19342;DHT22;9807;48.258;12.690;2022-12-18T07:17:20;3.40;99.90
19342;DHT22;9807;48.258;12.690;2022-12-18T07:19:46;3.50;99.90
19342;DHT22;9807;48.258;12.690;2022-12-18T07:22:12;3.50;99.90
19342;DHT22;9807;48.258;12.690;2022-12-18T07:24:37;3.40;99.90
19342;DHT22;9807;48.258;12.690;2022-12-18T07:27:03;3.50;99.90
19342;DHT22;9807;48.258;12.690;2022-12-18T07:29:29;3.60;99.90
19342;DHT22;9807;48.258;12.690;2022-12-18T07:31:55;3.60;99.90
19342;DHT22;9807;48.258;12.690;2022-12-18T07:34:20;3.50;99.90
19342;DHT22;9807;48.258;12.690;2022-12-18T07:36:46;3.40;99.90
19342;DHT22;9807;48.258;12.690;2022-12-18T07:39:12;3.50;99.90
19342;DHT22;9807;48.258;12.690;2022-12-18T07:41:37;3.60;99.90
19342;DHT22;9807;48.258;12.690;2022-12-18T07:44:04;3.50;99.90
19342;DHT22;9807;48.258;12.690;2022-12-18T07:46:29;3.60;99.90
19342;DHT22;9807;48.258;12.690;2022-12-18T07:48:55;3.60;99.90
19342;DHT22;9807;48.258;12.690;2022-12-18T07:51:23;3.70;99.90
19342;DHT22;9807;48.258;12.690;2022-12-18T07:53:49;3.60;99.90
19342;DHT22;9807;48.258;12.690;2022-12-18T07:56:15;3.60;99.90
19342;DHT22;9807;48.258;12.690;2022-12-18T07:58:40;3.70;99.90
19342;DHT22;9807;48.258;12.690;2022-12-18T08:01:09;3.80;99.90
19342;DHT22;9807;48.258;12.690;2022-12-18T08:03:35;3.70;99.90
19342;DHT22;9807;48.258;12.690;2022-12-18T08:06:03;3.70;99.90
19342;DHT22;9807;48.258;12.690;2022-12-18T08:08:29;3.60;99.90
19342;DHT22;9807;48.258;12.690;2022-12-18T08:10:56;3.60;99.90
19342;DHT22;9807;48.258;12.690;2022-12-18T08:13:25;3.60;99.90
19342;DHT22;9807;48.258;12.690;2022-12-18T08:16:05;3.70;99.90
19342;DHT22;9807;48.258;12.690;2022-12-18T08:18:36;3.80;99.90
19342;DHT22;9807;48.258;12.690;2022-12-18T08:21:14;3.80;99.90
19342;DHT22;9807;48.258;12.690;2022-12-18T08:23:41;3.80;99.90
19342;DHT22;9807;48.258;12.690;2022-12-18T08:26:07;4.00;99.90
19342;DHT22;9807;48.258;12.690;2022-12-18T08:28:33;4.00;99.90
19342;DHT22;9807;48.258;12.690;2022-12-18T08:30:59;4.00;99.90
19342;DHT22;9807;48.258;12.690;2022-12-18T08:33:25;4.00;99.90
19342;DHT22;9807;48.258;12.690;2022-12-18T08:35:52;3.90;99.90
19342;DHT22;9807;48.258;12.690;2022-12-18T08:38:17;3.90;99.90
19342;DHT22;9807;48.258;12.690;2022-12-18T08:40:43;3.90;99.90
19342;DHT22;9807;48.258;12.690;2022-12-18T08:43:09;3.90;99.90
19342;DHT22;9807;48.258;12.690;2022-12-18T08:45:54;4.00;99.90
19342;DHT22;9807;48.258;12.690;2022-12-18T08:48:20;4.00;99.90
19342;DHT22;9807;48.258;12.690;2022-12-18T08:51:12;4.10;99.90
19342;DHT22;9807;48.258;12.690;2022-12-18T08:53:38;4.10;99.90
19342;DHT22;9807;48.258;12.690;2022-12-18T08:56:04;4.10;99.90
19342;DHT22;9807;48.258;12.690;2022-12-18T08:58:30;4.10;99.90
19342;DHT22;9807;48.258;12.690;2022-12-18T09:01:03;4.10;99.90
19342;DHT22;9807;48.258;12.690;2022-12-18T09:03:29;4.20;99.90
19342;DHT22;9807;48.258;12.690;2022-12-18T09:05:55;4.30;99.90
19342;DHT22;9807;48.258;12.690;2022-12-18T09:08:21;4.30;99.90
19342;DHT22;9807;48.258;12.690;2022-12-18T09:10:48;4.30;99.90
19342;DHT22;9807;48.258;12.690;2022-12-18T09:13:15;4.30;99.90
19342;DHT22;9807;48.258;12.690;2022-12-18T09:15:46;4.40;99.90
19342;DHT22;9807;48.258;12.690;2022-12-18T09:18:13;4.10;99.90
19342;DHT22;9807;48.258;12.690;2022-12-18T09:20:39;4.10;99.90
19342;DHT22;9807;48.258;12.690;2022-12-18T09:23:05;4.10;99.90
19342;DHT22;9807;48.258;12.690;2022-12-18T09:25:31;4.10;99.90
19342;DHT22;9807;48.258;12.690;2022-12-18T09:27:59;4.20;99.90
19342;DHT22;9807;48.258;12.690;2022-12-18T09:30:25;4.10;99.90
19342;DHT22;9807;48.258;12.690;2022-12-18T09:32:55;4.30;99.90
19342;DHT22;9807;48.258;12.690;2022-12-18T09:35:21;4.30;99.90
19342;DHT22;9807;48.258;12.690;2022-12-18T09:37:46;4.30;99.90
19342;DHT22;9807;48.258;12.690;2022-12-18T09:40:21;4.20;99.90
19342;DHT22;9807;48.258;12.690;2022-12-18T09:42:56;4.30;99.90
19342;DHT22;9807;48.258;12.690;2022-12-18T09:45:23;4.30;99.90
19342;DHT22;9807;48.258;12.690;2022-12-18T09:47:50;4.40;99.90
19342;DHT22;9807;48.258;12.690;2022-12-18T09:50:32;4.30;99.90
19342;DHT22;9807;48.258;12.690;2022-12-18T09:53:06;4.40;99.90
19342;DHT22;9807;48.258;12.690;2022-12-18T09:55:38;4.40;99.90
19342;DHT22;9807;48.258;12.690;2022-12-18T09:58:24;4.40;99.90
19342;DHT22;9807;48.258;12.690;2022-12-18T10:00:53;4.40;99.90
19342;DHT22;9807;48.258;12.690;2022-12-18T10:03:19;4.50;99.90
19342;DHT22;9807;48.258;12.690;2022-12-18T10:11:43;4.50;99.90
19342;DHT22;9807;48.258;12.690;2022-12-18T10:14:29;4.50;99.90
19342;DHT22;9807;48.258;12.690;2022-12-18T10:19:50;4.70;99.90
19342;DHT22;9807;48.258;12.690;2022-12-18T10:22:25;4.60;99.90
19342;DHT22;9807;48.258;12.690;2022-12-18T10:27:44;4.60;99.90
19342;DHT22;9807;48.258;12.690;2022-12-18T10:30:14;4.70;99.90
19342;DHT22;9807;48.258;12.690;2022-12-18T10:32:41;4.70;99.90
19342;DHT22;9807;48.258;12.690;2022-12-18T10:35:21;4.60;99.90
19342;DHT22;9807;48.258;12.690;2022-12-18T10:38:07;4.60;99.90
19342;DHT22;9807;48.258;12.690;2022-12-18T10:40:59;4.70;99.90
19342;DHT22;9807;48.258;12.690;2022-12-18T10:43:36;4.70;99.90
19342;DHT22;9807;48.258;12.690;2022-12-18T10:46:15;4.70;99.90
19342;DHT22;9807;48.258;12.690;2022-12-18T10:56:40;4.80;99.90
19342;DHT22;9807;48.258;12.690;2022-12-18T10:59:12;4.80;99.90
19342;DHT22;9807;48.258;12.690;2022-12-18T11:01:48;4.90;99.90
19342;DHT22;9807;48.258;12.690;2022-12-18T11:06:59;4.70;99.90
19342;DHT22;9807;48.258;12.690;2022-12-18T11:09:28;4.80;99.90
19342;DHT22;9807;48.258;12.690;2022-12-18T11:12:00;4.70;99.90
19342;DHT22;9807;48.258;12.690;2022-12-18T11:14:27;4.80;99.90
19342;DHT22;9807;48.258;12.690;2022-12-18T11:16:55;4.80;99.90
19342;DHT22;9807;48.258;12.690;2022-12-18T11:19:35;4.90;99.90
19342;DHT22;9807;48.258;12.690;2022-12-18T11:22:17;4.90;99.90
19342;DHT22;9807;48.258;12.690;2022-12-18T11:27:37;4.80;99.90
19342;DHT22;9807;48.258;12.690;2022-12-18T11:30:21;4.80;99.90
19342;DHT22;9807;48.258;12.690;2022-12-18T11:32:56;4.80;99.90
19342;DHT22;9807;48.258;12.690;2022-12-18T11:35:27;4.80;99.90
19342;DHT22;9807;48.258;12.690;2022-12-18T11:38:04;4.70;99.90
19342;DHT22;9807;48.258;12.690;2022-12-18T11:40:35;4.70;99.90
19342;DHT22;9807;48.258;12.690;2022-12-18T11:43:10;4.70;99.90
19342;DHT22;9807;48.258;12.690;2022-12-18T11:46:19;4.80;99.90
19342;DHT22;9807;48.258;12.690;2022-12-18T11:48:54;4.70;99.90
19342;DHT22;9807;48.258;12.690;2022-12-18T11:51:39;4.70;99.90
19342;DHT22;9807;48.258;12.690;2022-12-18T11:54:14;4.80;99.90
19342;DHT22;9807;48.258;12.690;2022-12-18T11:57:03;4.80;99.90
19342;DHT22;9807;48.258;12.690;2022-12-18T12:10:55;4.80;99.90
19342;DHT22;9807;48.258;12.690;2022-12-18T12:22:33;4.70;99.90
19342;DHT22;9807;48.258;12.690;2022-12-18T12:27:33;4.70;99.90
19342;DHT22;9807;48.258;12.690;2022-12-18T12:30:07;4.60;99.90
19342;DHT22;9807;48.258;12.690;2022-12-18T12:38:14;4.60;99.90
19342;DHT22;9807;48.258;12.690;2022-12-18T12:40:49;4.60;99.90
19342;DHT22;9807;48.258;12.690;2022-12-18T12:46:09;4.70;99.90
19342;DHT22;9807;48.258;12.690;2022-12-18T12:48:49;4.50;99.90
19342;DHT22;9807;48.258;12.690;2022-12-18T12:51:24;4.60;99.90
19342;DHT22;9807;48.258;12.690;2022-12-18T12:53:50;4.60;99.90
19342;DHT22;9807;48.258;12.690;2022-12-18T12:56:19;4.70;99.90
19342;DHT22;9807;48.258;12.690;2022-12-18T13:02:06;4.70;99.90
19342;DHT22;9807;48.258;12.690;2022-12-18T13:07:51;4.60;99.90
19342;DHT22;9807;48.258;12.690;2022-12-18T13:13:13;4.60;99.90
19342;DHT22;9807;48.258;12.690;2022-12-18T13:15:47;4.60;99.90
19342;DHT22;9807;48.258;12.690;2022-12-18T13:18:23;4.70;99.90
19342;DHT22;9807;48.258;12.690;2022-12-18T13:33:45;4.60;99.90
19342;DHT22;9807;48.258;12.690;2022-12-18T13:36:27;4.60;99.90
19342;DHT22;9807;48.258;12.690;2022-12-18T13:41:51;4.70;99.90
19342;DHT22;9807;48.258;12.690;2022-12-18T13:44:40;4.70;99.90
19342;DHT22;9807;48.258;12.690;2022-12-18T13:47:27;4.70;99.90
19342;DHT22;9807;48.258;12.690;2022-12-18T13:49:59;4.70;99.90
19342;DHT22;9807;48.258;12.690;2022-12-18T13:52:33;4.70;99.90
19342;DHT22;9807;48.258;12.690;2022-12-18T13:55:02;4.70;99.90
19342;DHT22;9807;48.258;12.690;2022-12-18T13:57:35;4.70;99.90
19342;DHT22;9807;48.258;12.690;2022-12-18T14:02:47;4.70;99.90
19342;DHT22;9807;48.258;12.690;2022-12-18T14:05:35;4.70;99.90
19342;DHT22;9807;48.258;12.690;2022-12-18T14:08:08;4.70;99.90
19342;DHT22;9807;48.258;12.690;2022-12-18T14:10:35;4.70;99.90
19342;DHT22;9807;48.258;12.690;2022-12-18T14:13:08;4.70;99.90
19342;DHT22;9807;48.258;12.690;2022-12-18T14:18:24;4.60;99.90
19342;DHT22;9807;48.258;12.690;2022-12-18T14:20:55;4.60;99.90
19342;DHT22;9807;48.258;12.690;2022-12-18T14:23:32;4.60;99.90
19342;DHT22;9807;48.258;12.690;2022-12-18T14:25:59;4.60;99.90
19342;DHT22;9807;48.258;12.690;2022-12-18T14:28:28;4.60;99.90
19342;DHT22;9807;48.258;12.690;2022-12-18T14:31:01;4.60;99.90
19342;DHT22;9807;48.258;12.690;2022-12-18T14:33:27;4.50;99.90
19342;DHT22;9807;48.258;12.690;2022-12-18T14:36:02;4.60;99.90
19342;DHT22;9807;48.258;12.690;2022-12-18T14:40:58;4.50;99.90
19342;DHT22;9807;48.258;12.690;2022-12-18T14:43:24;4.50;99.90
19342;DHT22;9807;48.258;12.690;2022-12-18T14:45:50;4.50;99.90
19342;DHT22;9807;48.258;12.690;2022-12-18T14:50:57;4.30;99.90
19342;DHT22;9807;48.258;12.690;2022-12-18T14:53:34;4.30;99.90
19342;DHT22;9807;48.258;12.690;2022-12-18T14:56:00;4.30;99.90
19342;DHT22;9807;48.258;12.690;2022-12-18T14:58:26;4.30;99.90
19342;DHT22;9807;48.258;12.690;2022-12-18T15:00:52;4.30;99.90
19342;DHT22;9807;48.258;12.690;2022-12-18T15:03:20;4.30;99.90
19342;DHT22;9807;48.258;12.690;2022-12-18T15:05:46;4.30;99.90
19342;DHT22;9807;48.258;12.690;2022-12-18T15:08:38;4.30;99.90
19342;DHT22;9807;48.258;12.690;2022-12-18T15:14:03;4.20;99.90
19342;DHT22;9807;48.258;12.690;2022-12-18T15:16:55;4.20;99.90
19342;DHT22;9807;48.258;12.690;2022-12-18T15:19:23;4.20;99.90
19342;DHT22;9807;48.258;12.690;2022-12-18T15:21:52;4.10;99.90
19342;DHT22;9807;48.258;12.690;2022-12-18T15:24:23;4.10;99.90
19342;DHT22;9807;48.258;12.690;2022-12-18T15:26:50;4.10;99.90
19342;DHT22;9807;48.258;12.690;2022-12-18T15:29:22;4.10;99.90
19342;DHT22;9807;48.258;12.690;2022-12-18T15:32:18;4.10;99.90
19342;DHT22;9807;48.258;12.690;2022-12-18T15:34:44;4.00;99.90
19342;DHT22;9807;48.258;12.690;2022-12-18T15:37:10;4.00;99.90
19342;DHT22;9807;48.258;12.690;2022-12-18T15:39:36;3.90;99.90
19342;DHT22;9807;48.258;12.690;2022-12-18T15:42:02;4.00;99.90
19342;DHT22;9807;48.258;12.690;2022-12-18T15:44:46;4.00;99.90
19342;DHT22;9807;48.258;12.690;2022-12-18T15:47:12;4.00;99.90
19342;DHT22;9807;48.258;12.690;2022-12-18T15:49:39;3.90;99.90
19342;DHT22;9807;48.258;12.690;2022-12-18T15:52:05;4.00;99.90
19342;DHT22;9807;48.258;12.690;2022-12-18T15:54:31;4.00;99.90
19342;DHT22;9807;48.258;12.690;2022-12-18T15:57:16;4.00;99.90
19342;DHT22;9807;48.258;12.690;2022-12-18T15:59:55;4.00;99.90
19342;DHT22;9807;48.258;12.690;2022-12-18T16:02:23;4.00;99.90
19342;DHT22;9807;48.258;12.690;2022-12-18T16:04:51;4.00;99.90
19342;DHT22;9807;48.258;12.690;2022-12-18T16:07:17;4.00;99.90
19342;DHT22;9807;48.258;12.690;2022-12-18T16:09:43;3.90;99.90
19342;DHT22;9807;48.258;12.690;2022-12-18T16:12:16;3.90;99.90
19342;DHT22;9807;48.258;12.690;2022-12-18T16:14:42;3.90;99.90
19342;DHT22;9807;48.258;12.690;2022-12-18T16:17:12;4.00;99.90
19342;DHT22;9807;48.258;12.690;2022-12-18T16:19:39;3.90;99.90
19342;DHT22;9807;48.258;12.690;2022-12-18T16:22:05;3.80;99.90
19342;DHT22;9807;48.258;12.690;2022-12-18T16:24:33;3.90;99.90
19342;DHT22;9807;48.258;12.690;2022-12-18T16:27:01;3.80;99.90
19342;DHT22;9807;48.258;12.690;2022-12-18T16:29:28;3.80;99.90
19342;DHT22;9807;48.258;12.690;2022-12-18T16:32:02;3.80;99.90
19342;DHT22;9807;48.258;12.690;2022-12-18T16:34:30;3.80;99.90
19342;DHT22;9807;48.258;12.690;2022-12-18T16:37:06;3.70;99.90
19342;DHT22;9807;48.258;12.690;2022-12-18T16:39:33;3.60;99.90
19342;DHT22;9807;48.258;12.690;2022-12-18T16:42:03;3.70;99.90
19342;DHT22;9807;48.258;12.690;2022-12-18T16:44:29;3.60;99.90
19342;DHT22;9807;48.258;12.690;2022-12-18T16:46:55;3.70;99.90
19342;DHT22;9807;48.258;12.690;2022-12-18T16:49:27;3.70;99.90
19342;DHT22;9807;48.258;12.690;2022-12-18T16:51:53;3.70;99.90
19342;DHT22;9807;48.258;12.690;2022-12-18T16:54:19;3.70;99.90
19342;DHT22;9807;48.258;12.690;2022-12-18T16:56:45;3.70;99.90
19342;DHT22;9807;48.258;12.690;2022-12-18T16:59:14;3.60;99.90
19342;DHT22;9807;48.258;12.690;2022-12-18T17:01:42;3.60;99.90
19342;DHT22;9807;48.258;12.690;2022-12-18T17:04:08;3.60;99.90
19342;DHT22;9807;48.258;12.690;2022-12-18T17:06:38;3.60;99.90
19342;DHT22;9807;48.258;12.690;2022-12-18T17:09:06;3.60;99.90
19342;DHT22;9807;48.258;12.690;2022-12-18T17:11:34;3.60;99.90
19342;DHT22;9807;48.258;12.690;2022-12-18T17:14:08;3.60;99.90
19342;DHT22;9807;48.258;12.690;2022-12-18T17:16:35;3.50;99.90
19342;DHT22;9807;48.258;12.690;2022-12-18T17:19:01;3.60;99.90
19342;DHT22;9807;48.258;12.690;2022-12-18T17:21:26;3.50;99.90
19342;DHT22;9807;48.258;12.690;2022-12-18T17:23:53;3.50;99.90
19342;DHT22;9807;48.258;12.690;2022-12-18T17:26:18;3.50;99.90
19342;DHT22;9807;48.258;12.690;2022-12-18T17:28:44;3.50;99.90
19342;DHT22;9807;48.258;12.690;2022-12-18T17:31:16;3.50;99.90
19342;DHT22;9807;48.258;12.690;2022-12-18T17:33:42;3.60;99.90
19342;DHT22;9807;48.258;12.690;2022-12-18T17:36:08;3.60;99.90
19342;DHT22;9807;48.258;12.690;2022-12-18T17:38:34;3.60;99.90
19342;DHT22;9807;48.258;12.690;2022-12-18T17:41:01;3.60;99.90
19342;DHT22;9807;48.258;12.690;2022-12-18T17:43:27;3.50;99.90
19342;DHT22;9807;48.258;12.690;2022-12-18T17:45:55;3.40;99.90
19342;DHT22;9807;48.258;12.690;2022-12-18T17:48:20;3.40;99.90
19342;DHT22;9807;48.258;12.690;2022-12-18T17:50:46;3.40;99.90
19342;DHT22;9807;48.258;12.690;2022-12-18T17:53:12;3.40;99.90
19342;DHT22;9807;48.258;12.690;2022-12-18T17:55:38;3.40;99.90
19342;DHT22;9807;48.258;12.690;2022-12-18T17:58:03;3.40;99.90
19342;DHT22;9807;48.258;12.690;2022-12-18T18:00:29;3.40;99.90
19342;DHT22;9807;48.258;12.690;2022-12-18T18:02:55;3.40;99.90
19342;DHT22;9807;48.258;12.690;2022-12-18T18:05:20;3.30;99.90
19342;DHT22;9807;48.258;12.690;2022-12-18T18:07:46;3.30;99.90
19342;DHT22;9807;48.258;12.690;2022-12-18T18:10:13;3.30;99.90